createdAt,value
2022-10-17T00:01:13.201Z,101540.50
2022-10-17T00:03:41.780Z,101548.36
2022-10-17T00:06:13.572Z,101548.16
2022-10-17T00:08:43.215Z,101550.59
2022-10-17T00:11:18.560Z,101557.46
2022-10-17T00:13:47.595Z,101557.27
2022-10-17T00:16:16.551Z,101559.10
2022-10-17T00:18:45.124Z,101557.91
2022-10-17T00:21:17.096Z,101556.88
2022-10-17T00:23:45.647Z,101555.58
2022-10-17T00:26:14.106Z,101557.66
2022-10-17T00:28:42.576Z,101549.64
2022-10-17T00:31:13.191Z,101548.60
2022-10-17T00:33:42.758Z,101542.95
2022-10-17T00:36:14.103Z,101545.23
2022-10-17T00:38:44.162Z,101544.21
2022-10-17T00:41:14.821Z,101548.06
2022-10-17T00:43:58.318Z,101556.20
2022-10-17T00:46:28.612Z,101553.94
2022-10-17T00:48:58.374Z,101562.33
2022-10-17T00:51:32.369Z,101574.47
2022-10-17T00:54:01.906Z,101575.45
2022-10-17T00:56:33.509Z,101573.29
2022-10-17T00:59:02.017Z,101572.27
2022-10-17T01:01:30.379Z,101567.62
2022-10-17T01:03:58.889Z,101566.16
2022-10-17T01:06:27.344Z,101564.64
2022-10-17T01:08:56.094Z,101562.05
2022-10-17T01:11:33.339Z,101565.08
2022-10-17T01:14:04.437Z,101566.34
2022-10-17T01:16:42.842Z,101563.80
2022-10-17T01:19:31.914Z,101566.59
2022-10-17T01:22:02.055Z,101572.59
2022-10-17T01:24:45.377Z,101575.21
2022-10-17T01:27:32.276Z,101577.92
2022-10-17T01:30:26.916Z,101575.77
2022-10-17T01:32:54.613Z,101569.59
2022-10-17T01:35:25.879Z,101568.58
2022-10-17T01:37:59.306Z,101567.42
2022-10-17T01:40:29.647Z,101558.87
2022-10-17T01:43:02.084Z,101554.50
2022-10-17T01:45:33.607Z,101560.02
2022-10-17T01:48:07.521Z,101563.54
2022-10-17T01:50:40.294Z,101562.46
2022-10-17T01:53:12.062Z,101567.98
2022-10-17T01:55:42.025Z,101576.13
2022-10-17T01:58:12.509Z,101576.74
2022-10-17T02:00:42.205Z,101573.55
2022-10-17T02:03:13.755Z,101569.05
2022-10-17T02:05:43.552Z,101569.02
2022-10-17T02:08:12.242Z,101563.81
2022-10-17T02:10:46.777Z,101572.62
2022-10-17T02:13:22.378Z,101572.02
2022-10-17T02:16:01.439Z,101568.08
2022-10-17T02:18:54.929Z,101573.59
2022-10-17T02:21:29.953Z,101575.70
2022-10-17T02:24:06.697Z,101578.92
2022-10-17T02:26:43.192Z,101580.48
2022-10-17T02:29:15.351Z,101582.46
2022-10-17T02:31:47.399Z,101585.89
2022-10-17T02:34:19.748Z,101589.50
2022-10-17T02:36:51.038Z,101591.73
2022-10-17T02:39:20.065Z,101595.38
2022-10-17T02:41:49.161Z,101595.48
2022-10-17T02:44:18.353Z,101603.95
2022-10-17T02:46:54.347Z,101607.41
2022-10-17T02:49:29.488Z,101610.28
2022-10-17T02:52:01.260Z,101613.85
2022-10-17T02:54:36.285Z,101612.73
2022-10-17T02:57:10.394Z,101613.70
2022-10-17T02:59:41.579Z,101613.29
2022-10-17T03:02:10.747Z,101626.04
2022-10-17T03:04:45.434Z,101625.20
2022-10-17T03:07:14.409Z,101629.51
2022-10-17T03:09:42.929Z,101634.11
2022-10-17T03:12:11.285Z,101635.70
2022-10-17T03:14:39.626Z,101643.09
2022-10-17T03:17:07.918Z,101649.25
2022-10-17T03:19:36.168Z,101647.57
2022-10-17T03:22:04.649Z,101645.76
2022-10-17T03:24:33.066Z,101646.06
2022-10-17T03:27:01.413Z,101643.87
2022-10-17T03:29:31.389Z,101643.64
2022-10-17T03:32:00.679Z,101646.73
2022-10-17T03:34:29.661Z,101646.48
2022-10-17T03:36:58.091Z,101651.05
2022-10-17T03:39:26.789Z,101650.19
2022-10-17T03:41:55.762Z,101654.16
2022-10-17T03:44:24.225Z,101654.10
2022-10-17T03:46:54.220Z,101651.88
2022-10-17T03:49:22.621Z,101650.14
2022-10-17T03:51:51.050Z,101645.93
2022-10-17T03:54:19.441Z,101643.58
2022-10-17T03:56:47.898Z,101648.36
2022-10-17T03:59:16.653Z,101649.06
2022-10-17T04:01:45.272Z,101649.44
2022-10-17T04:04:13.679Z,101646.37
2022-10-17T04:06:42.568Z,101646.91
2022-10-17T04:09:11.053Z,101650.08
2022-10-17T04:11:39.501Z,101654.17
2022-10-17T04:14:07.900Z,101662.47
2022-10-17T04:16:36.265Z,101663.73
2022-10-17T04:19:05.107Z,101664.71
2022-10-17T04:21:33.818Z,101663.80
2022-10-17T04:24:02.520Z,101663.60
2022-10-17T04:26:31.335Z,101665.79
2022-10-17T04:28:59.820Z,101667.84
2022-10-17T04:31:31.004Z,101670.07
2022-10-17T04:33:59.855Z,101671.18
2022-10-17T04:36:28.755Z,101677.89
2022-10-17T04:38:57.110Z,101678.43
2022-10-17T04:41:26.189Z,101678.47
2022-10-17T04:43:55.092Z,101676.08
2022-10-17T04:46:23.596Z,101671.36
2022-10-17T04:48:53.408Z,101668.19
2022-10-17T04:51:26.518Z,101672.66
2022-10-17T04:53:55.764Z,101672.17
2022-10-17T04:56:25.372Z,101679.27
2022-10-17T04:58:53.758Z,101687.77
2022-10-17T05:01:23.321Z,101686.41
2022-10-17T05:03:52.217Z,101686.48
2022-10-17T05:06:24.610Z,101687.02
2022-10-17T05:08:55.928Z,101690.61
2022-10-17T05:11:26.016Z,101698.89
2022-10-17T05:13:56.670Z,101705.04
2022-10-17T05:16:25.532Z,101714.98
2022-10-17T05:18:55.263Z,101721.41
2022-10-17T05:21:25.170Z,101724.66
2022-10-17T05:23:56.512Z,101733.20
2022-10-17T05:26:26.284Z,101738.45
2022-10-17T05:28:55.624Z,101735.41
2022-10-17T05:31:24.192Z,101727.53
2022-10-17T05:33:52.685Z,101712.70
2022-10-17T05:36:22.155Z,101721.53
2022-10-17T05:38:50.942Z,101731.41
2022-10-17T05:41:20.751Z,101742.73
2022-10-17T05:43:49.632Z,101751.16
2022-10-17T05:46:18.193Z,101761.16
2022-10-17T05:48:46.992Z,101761.92
2022-10-17T05:51:15.676Z,101762.20
2022-10-17T05:53:44.066Z,101772.11
2022-10-17T05:56:14.335Z,101771.13
2022-10-17T05:58:56.197Z,101771.19
2022-10-17T06:01:27.430Z,101772.30
2022-10-17T06:04:00.184Z,101770.54
2022-10-17T06:06:34.870Z,101770.96
2022-10-17T06:09:04.218Z,101769.50
2022-10-17T06:11:36.713Z,101767.48
2022-10-17T06:14:09.494Z,101768.45
2022-10-17T06:16:38.752Z,101768.98
2022-10-17T06:19:07.800Z,101771.80
2022-10-17T06:21:38.265Z,101775.32
2022-10-17T06:24:09.362Z,101785.86
2022-10-17T06:26:38.205Z,101789.45
2022-10-17T06:29:15.531Z,101787.09
2022-10-17T06:31:44.467Z,101778.89
2022-10-17T06:34:16.421Z,101775.49
2022-10-17T06:36:46.359Z,101772.30
2022-10-17T06:39:15.160Z,101783.25
2022-10-17T06:41:44.230Z,101794.44
2022-10-17T06:44:13.015Z,101796.11
2022-10-17T06:46:44.379Z,101797.70
2022-10-17T06:49:13.122Z,101800.52
2022-10-17T06:51:41.739Z,101801.06
2022-10-17T06:54:10.488Z,101801.78
2022-10-17T06:56:38.824Z,101805.84
2022-10-17T06:59:09.158Z,101806.00
2022-10-17T07:01:41.829Z,101805.52
2022-10-17T07:04:15.933Z,101809.52
2022-10-17T07:06:45.313Z,101808.05
2022-10-17T07:09:14.052Z,101807.54
2022-10-17T07:11:42.702Z,101812.05
2022-10-17T07:14:11.181Z,101812.30
2022-10-17T07:16:39.665Z,101818.70
2022-10-17T07:19:08.281Z,101820.33
2022-10-17T07:21:39.131Z,101820.56
2022-10-17T07:24:08.239Z,101819.48
2022-10-17T07:26:38.109Z,101819.41
2022-10-17T07:29:07.114Z,101819.88
2022-10-17T07:31:35.920Z,101819.22
2022-10-17T07:34:05.580Z,101814.54
2022-10-17T07:36:34.332Z,101816.92
2022-10-17T07:39:04.473Z,101813.29
2022-10-17T07:41:33.808Z,101816.88
2022-10-17T07:44:05.236Z,101820.05
2022-10-17T07:46:34.351Z,101829.56
2022-10-17T07:49:02.777Z,101832.77
2022-10-17T07:51:33.624Z,101835.03
2022-10-17T07:54:05.658Z,101835.52
2022-10-17T07:56:34.217Z,101832.55
2022-10-17T07:59:05.316Z,101833.65
2022-10-17T08:01:37.409Z,101837.73
2022-10-17T08:04:06.241Z,101843.89
2022-10-17T08:06:34.956Z,101843.50
2022-10-17T08:09:03.828Z,101849.84
2022-10-17T08:11:32.639Z,101850.61
2022-10-17T08:14:07.764Z,101856.85
2022-10-17T08:16:36.950Z,101854.61
2022-10-17T08:19:12.740Z,101855.66
2022-10-17T08:21:43.002Z,101855.84
2022-10-17T08:24:14.221Z,101856.73
2022-10-17T08:26:49.573Z,101855.43
2022-10-17T08:29:20.247Z,101852.69
2022-10-17T08:31:52.412Z,101854.44
2022-10-17T08:34:25.464Z,101850.56
2022-10-17T08:36:54.613Z,101853.73
2022-10-17T08:39:23.221Z,101846.59
2022-10-17T08:42:05.887Z,101844.36
2022-10-17T08:44:46.226Z,101839.70
2022-10-17T08:47:20.025Z,101840.85
2022-10-17T08:49:55.192Z,101832.71
2022-10-17T08:52:30.555Z,101835.70
2022-10-17T08:54:59.484Z,101834.17
2022-10-17T08:57:28.769Z,101833.27
2022-10-17T08:59:57.720Z,101828.54
2022-10-17T09:02:39.560Z,101828.38
2022-10-17T09:05:35.975Z,101834.05
2022-10-17T09:08:14.774Z,101835.31
2022-10-17T09:10:53.033Z,101832.30
2022-10-17T09:13:33.002Z,101830.85
2022-10-17T09:16:11.615Z,101825.80
2022-10-17T09:18:42.612Z,101822.09
2022-10-17T09:21:21.427Z,101820.66
2022-10-17T09:23:59.656Z,101819.22
2022-10-17T09:26:39.558Z,101822.56
2022-10-17T09:29:17.782Z,101825.77
2022-10-17T09:31:49.403Z,101825.60
2022-10-17T09:34:17.922Z,101821.49
2022-10-17T09:36:46.251Z,101823.96
2022-10-17T09:39:19.557Z,101825.66
2022-10-17T09:41:51.133Z,101822.65
2022-10-17T09:44:22.259Z,101820.20
2022-10-17T09:47:06.093Z,101820.97
2022-10-17T09:49:38.978Z,101817.59
2022-10-17T09:52:14.554Z,101822.56
2022-10-17T09:54:45.713Z,101820.40
2022-10-17T09:57:15.553Z,101813.77
2022-10-17T09:59:47.203Z,101812.98
2022-10-17T10:02:18.787Z,101808.16
2022-10-17T10:05:04.696Z,101803.79
2022-10-17T10:07:37.747Z,101800.96
2022-10-17T10:10:08.608Z,101799.02
2022-10-17T10:12:38.851Z,101798.79
2022-10-17T10:15:32.038Z,101795.77
2022-10-17T10:18:01.482Z,101792.51
2022-10-17T10:20:33.749Z,101794.78
2022-10-17T10:23:23.707Z,101792.66
2022-10-17T10:25:59.675Z,101792.64
2022-10-17T10:28:29.768Z,101793.41
2022-10-17T10:31:00.475Z,101789.35
2022-10-17T10:33:34.311Z,101787.76
2022-10-17T10:36:05.956Z,101788.02
2022-10-17T10:38:34.949Z,101787.19
2022-10-17T10:41:07.559Z,101788.07
2022-10-17T10:43:40.017Z,101784.90
2022-10-17T10:46:19.732Z,101786.33
2022-10-17T10:48:54.015Z,101782.27
2022-10-17T10:51:28.300Z,101786.02
2022-10-17T10:54:05.196Z,101788.41
2022-10-17T10:56:43.590Z,101785.13
2022-10-17T10:59:25.445Z,101783.63
2022-10-17T11:01:58.013Z,101781.00
2022-10-17T11:04:31.595Z,101776.05
2022-10-17T11:07:08.039Z,101778.92
2022-10-17T11:09:46.921Z,101781.57
2022-10-17T11:12:20.943Z,101780.73
2022-10-17T11:14:53.761Z,101781.81
2022-10-17T11:17:42.495Z,101783.76
2022-10-17T11:20:33.914Z,101782.90
2022-10-17T11:23:15.489Z,101778.91
2022-10-17T11:25:44.442Z,101775.77
2022-10-17T11:28:16.935Z,101776.67
2022-10-17T11:30:51.707Z,101775.27
2022-10-17T11:33:30.394Z,101780.98
2022-10-17T11:36:07.160Z,101781.11
2022-10-17T11:38:45.680Z,101775.68
2022-10-17T11:41:17.466Z,101779.02
2022-10-17T11:43:51.921Z,101779.27
2022-10-17T11:46:23.614Z,101778.98
2022-10-17T11:49:12.357Z,101777.55
2022-10-17T11:52:05.416Z,101781.98
2022-10-17T11:54:38.144Z,101778.54
2022-10-17T11:57:38.497Z,101775.79
2022-10-17T12:00:26.494Z,101784.30
2022-10-17T12:03:15.963Z,101787.45
2022-10-17T12:05:52.635Z,101788.98
2022-10-17T12:08:30.556Z,101785.91
2022-10-17T12:11:03.948Z,101786.89
2022-10-17T12:13:56.411Z,101789.27
2022-10-17T12:16:45.795Z,101786.50
2022-10-17T12:19:36.854Z,101782.05
2022-10-17T12:22:26.577Z,101781.98
2022-10-17T12:25:00.693Z,101781.14
2022-10-17T12:27:45.838Z,101780.02
2022-10-17T12:30:25.253Z,101777.57
2022-10-17T12:33:07.388Z,101769.08
2022-10-17T12:35:39.361Z,101766.02
2022-10-17T12:38:21.388Z,101765.44
2022-10-17T12:41:06.192Z,101762.44
2022-10-17T12:43:52.586Z,101757.48
2022-10-17T12:46:57.478Z,101754.32
2022-10-17T12:49:39.449Z,101753.98
2022-10-17T12:52:23.336Z,101746.84
2022-10-17T12:55:13.512Z,101743.82
2022-10-17T12:57:56.184Z,101739.98
2022-10-17T13:00:33.015Z,101737.32
2022-10-17T13:03:12.541Z,101739.48
2022-10-17T13:05:48.219Z,101735.48
2022-10-17T13:08:20.263Z,101735.14
2022-10-17T13:10:52.545Z,101741.98
2022-10-17T13:13:25.447Z,101743.77
2022-10-17T13:15:56.183Z,101740.58
2022-10-17T13:18:30.019Z,101740.17
2022-10-17T13:21:02.601Z,101739.94
2022-10-17T13:23:35.304Z,101740.84
2022-10-17T13:26:12.288Z,101741.65
2022-10-17T13:28:42.203Z,101739.92
2022-10-17T13:31:47.123Z,101740.79
2022-10-17T13:34:35.608Z,101740.13
2022-10-17T13:37:06.315Z,101741.70
2022-10-17T13:39:55.156Z,101742.23
2022-10-17T13:42:29.905Z,101734.78
2022-10-17T13:44:59.370Z,101731.95
2022-10-17T13:47:31.668Z,101730.36
2022-10-17T13:50:01.085Z,101724.89
2022-10-17T13:52:31.195Z,101720.24
2022-10-17T13:55:16.567Z,101723.55
2022-10-17T13:57:48.465Z,101726.23
2022-10-17T14:00:20.645Z,101726.91
2022-10-17T14:02:49.752Z,101723.55
2022-10-17T14:05:20.319Z,101717.42
2022-10-17T14:08:13.374Z,101717.59
2022-10-17T14:10:45.996Z,101716.25
2022-10-17T14:13:22.507Z,101714.83
2022-10-17T14:15:54.926Z,101710.55
2022-10-17T14:18:35.778Z,101712.95
2022-10-17T14:24:15.473Z,101701.20
2022-10-17T14:26:59.189Z,101705.39
2022-10-17T14:29:29.628Z,101701.86
2022-10-17T14:32:13.043Z,101700.42
2022-10-17T14:34:41.641Z,101698.36
2022-10-17T14:37:11.520Z,101695.80
2022-10-17T14:39:40.789Z,101692.80
2022-10-17T14:42:19.147Z,101692.76
2022-10-17T14:44:49.844Z,101690.40
2022-10-17T14:47:42.161Z,101686.50
2022-10-17T14:50:26.067Z,101685.82
2022-10-17T14:53:04.455Z,101684.42
2022-10-17T14:55:35.302Z,101686.12
2022-10-17T14:58:16.654Z,101690.77
2022-10-17T15:00:45.268Z,101691.61
2022-10-17T15:03:14.001Z,101691.19
2022-10-17T15:05:42.573Z,101689.33
2022-10-17T15:08:13.981Z,101691.35
2022-10-17T15:10:43.289Z,101692.80
2022-10-17T15:13:27.594Z,101693.37
2022-10-17T15:15:58.725Z,101694.05
2022-10-17T15:18:27.478Z,101691.21
2022-10-17T15:21:04.761Z,101692.66
2022-10-17T15:23:42.016Z,101694.80
2022-10-17T15:26:14.906Z,101695.39
2022-10-17T15:28:43.836Z,101694.92
2022-10-17T15:31:14.555Z,101696.94
2022-10-17T15:33:43.801Z,101695.50
2022-10-17T15:36:20.431Z,101696.13
2022-10-17T15:38:49.680Z,101691.55
2022-10-17T15:41:18.423Z,101689.75
2022-10-17T15:43:47.846Z,101688.54
2022-10-17T15:46:18.733Z,101683.98
2022-10-17T15:48:47.988Z,101687.92
2022-10-17T15:51:16.844Z,101688.21
2022-10-17T15:53:45.180Z,101692.36
2022-10-17T15:56:22.189Z,101693.15
2022-10-17T15:58:50.949Z,101694.19
2022-10-17T16:01:23.712Z,101694.39
2022-10-17T16:03:52.277Z,101694.08
2022-10-17T16:06:23.979Z,101692.77
2022-10-17T16:08:53.144Z,101688.63
2022-10-17T16:11:26.527Z,101686.85
2022-10-17T16:13:56.759Z,101685.50
2022-10-17T16:16:25.131Z,101683.29
2022-10-17T16:18:53.621Z,101685.08
2022-10-17T16:21:25.124Z,101686.90
2022-10-17T16:23:53.779Z,101691.27
2022-10-17T16:26:27.189Z,101686.80
2022-10-17T16:28:57.543Z,101678.05
2022-10-17T16:31:28.906Z,101676.09
2022-10-17T16:33:58.918Z,101676.15
2022-10-17T16:36:27.571Z,101674.20
2022-10-17T16:38:55.903Z,101677.20
2022-10-17T16:41:26.828Z,101673.60
2022-10-17T16:43:57.119Z,101671.31
2022-10-17T16:46:27.406Z,101670.85
2022-10-17T16:48:57.513Z,101670.44
2022-10-17T16:51:25.964Z,101668.44
2022-10-17T16:53:59.515Z,101670.08
2022-10-17T16:56:31.072Z,101670.89
2022-10-17T16:58:59.878Z,101674.74
2022-10-17T17:01:29.181Z,101675.20
2022-10-17T17:03:57.544Z,101675.88
2022-10-17T17:06:27.583Z,101675.26
2022-10-17T17:08:57.344Z,101676.23
2022-10-17T17:11:27.728Z,101675.09
2022-10-17T17:13:57.173Z,101671.16
2022-10-17T17:16:27.838Z,101671.70
2022-10-17T17:18:57.611Z,101671.95
2022-10-17T17:21:26.477Z,101674.52
2022-10-17T17:23:57.683Z,101673.92
2022-10-17T17:26:27.490Z,101677.20
2022-10-17T17:28:58.409Z,101678.73
2022-10-17T17:31:30.451Z,101680.52
2022-10-17T17:33:59.278Z,101676.93
2022-10-17T17:36:29.186Z,101673.45
2022-10-17T17:39:03.101Z,101673.77
2022-10-17T17:41:31.936Z,101675.40
2022-10-17T17:44:01.368Z,101675.15
2022-10-17T17:46:30.170Z,101676.02
2022-10-17T17:48:58.798Z,101674.42
2022-10-17T17:51:29.453Z,101671.48
2022-10-17T17:53:58.683Z,101674.16
2022-10-17T17:56:29.190Z,101668.86
2022-10-17T17:58:59.184Z,101671.04
2022-10-17T18:01:30.812Z,101671.36
2022-10-17T18:04:00.027Z,101671.60
2022-10-17T18:06:29.129Z,101670.50
2022-10-17T18:08:58.673Z,101672.27
2022-10-17T18:11:27.621Z,101673.86
2022-10-17T18:13:56.719Z,101676.61
2022-10-17T18:16:26.009Z,101675.63
2022-10-17T18:18:54.667Z,101673.83
2022-10-17T18:21:23.460Z,101676.70
2022-10-17T18:23:52.313Z,101672.48
2022-10-17T18:26:21.135Z,101674.73
2022-10-17T18:28:50.266Z,101669.23
2022-10-17T18:31:23.681Z,101669.40
2022-10-17T18:33:53.377Z,101665.83
2022-10-17T18:36:22.332Z,101662.60
2022-10-17T18:38:50.868Z,101666.31
2022-10-17T18:41:21.148Z,101665.83
2022-10-17T18:43:50.980Z,101664.89
2022-10-17T18:46:21.724Z,101660.34
2022-10-17T18:48:51.071Z,101661.52
2022-10-17T18:51:20.740Z,101663.11
2022-10-17T18:53:51.139Z,101660.45
2022-10-17T18:56:22.075Z,101660.52
2022-10-17T18:58:51.249Z,101661.41
2022-10-17T19:01:22.205Z,101662.48
2022-10-17T19:03:52.478Z,101663.08
2022-10-17T19:06:23.182Z,101664.55
2022-10-17T19:08:51.811Z,101663.80
2022-10-17T19:11:22.765Z,101664.52
2022-10-17T19:13:51.950Z,101660.52
2022-10-17T19:16:23.137Z,101657.23
2022-10-17T19:18:52.264Z,101655.77
2022-10-17T19:21:22.894Z,101653.33
2022-10-17T19:23:53.904Z,101653.58
2022-10-17T19:26:23.106Z,101652.33
2022-10-17T19:28:53.546Z,101653.02
2022-10-17T19:31:26.756Z,101652.14
2022-10-17T19:33:56.460Z,101651.98
2022-10-17T19:36:29.064Z,101650.48
2022-10-17T19:39:01.960Z,101655.41
2022-10-17T19:41:30.528Z,101652.95
2022-10-17T19:43:59.337Z,101650.58
2022-10-17T19:46:29.296Z,101646.07
2022-10-17T19:48:57.968Z,101649.54
2022-10-17T19:51:27.018Z,101650.23
2022-10-17T19:53:59.722Z,101649.96
2022-10-17T19:56:30.354Z,101649.93
2022-10-17T19:58:59.349Z,101647.80
2022-10-17T20:01:30.319Z,101644.33
2022-10-17T20:04:01.536Z,101646.44
2022-10-17T20:06:30.111Z,101649.80
2022-10-17T20:08:59.051Z,101645.27
2022-10-17T20:11:28.932Z,101642.02
2022-10-17T20:13:58.854Z,101637.13
2022-10-17T20:16:31.045Z,101635.09
2022-10-17T20:19:06.226Z,101629.29
2022-10-17T20:21:36.324Z,101628.29
2022-10-17T20:24:09.942Z,101625.05
2022-10-17T20:26:41.174Z,101627.15
2022-10-17T20:29:15.341Z,101625.56
2022-10-17T20:31:43.443Z,101626.11
2022-10-17T20:34:17.149Z,101627.07
2022-10-17T20:36:46.479Z,101624.14
2022-10-17T20:39:16.898Z,101622.67
2022-10-17T20:41:47.052Z,101622.14
2022-10-17T20:44:16.046Z,101619.21
2022-10-17T20:47:00.559Z,101617.85
2022-10-17T20:49:31.195Z,101613.74
2022-10-17T20:52:01.225Z,101610.41
2022-10-17T20:54:29.829Z,101606.08
2022-10-17T20:57:01.200Z,101599.52
2022-10-17T20:59:34.545Z,101596.41
2022-10-17T21:02:04.072Z,101599.34
2022-10-17T21:04:45.888Z,101596.58
2022-10-17T21:07:16.175Z,101591.77
2022-10-17T21:09:45.764Z,101589.77
2022-10-17T21:12:30.892Z,101592.39
2022-10-17T21:15:07.186Z,101588.14
2022-10-17T21:17:36.849Z,101592.51
2022-10-17T21:20:07.843Z,101596.34
2022-10-17T21:22:36.392Z,101594.63
2022-10-17T21:25:09.112Z,101593.92
2022-10-17T21:27:37.917Z,101592.29
2022-10-17T21:30:14.125Z,101589.50
2022-10-17T21:32:53.529Z,101591.40
2022-10-17T21:35:26.177Z,101591.61
2022-10-17T21:37:54.942Z,101588.72
2022-10-17T21:40:23.853Z,101584.92
2022-10-17T21:42:52.466Z,101583.56
2022-10-17T21:45:25.835Z,101579.04
2022-10-17T21:48:13.149Z,101583.05
2022-10-17T21:50:45.483Z,101580.98
2022-10-17T21:53:14.039Z,101575.85
2022-10-17T21:55:43.431Z,101572.31
2022-10-17T21:58:11.817Z,101566.18
2022-10-17T22:00:44.840Z,101565.46
2022-10-17T22:03:16.579Z,101564.62
2022-10-17T22:05:48.109Z,101567.86
2022-10-17T22:08:16.671Z,101566.77
2022-10-17T22:10:45.503Z,101563.83
2022-10-17T22:13:14.200Z,101564.02
2022-10-17T22:15:43.312Z,101563.50
2022-10-17T22:18:11.727Z,101567.06
2022-10-17T22:20:40.435Z,101565.26
2022-10-17T22:23:08.971Z,101565.52
2022-10-17T22:25:37.460Z,101562.14
2022-10-17T22:28:06.008Z,101564.98
2022-10-17T22:30:34.549Z,101560.37
2022-10-17T22:33:05.483Z,101561.24
2022-10-17T22:35:34.945Z,101563.67
2022-10-17T22:38:03.559Z,101556.79
2022-10-17T22:40:31.973Z,101562.30
2022-10-17T22:43:07.786Z,101562.73
2022-10-17T22:45:36.572Z,101561.70
2022-10-17T22:48:06.414Z,101560.96
2022-10-17T22:50:37.361Z,101562.63
2022-10-17T22:53:06.255Z,101563.80
2022-10-17T22:55:34.626Z,101557.20
2022-10-17T22:58:04.307Z,101561.02
2022-10-17T23:00:32.934Z,101563.13
2022-10-17T23:03:02.299Z,101556.13
2022-10-17T23:05:30.606Z,101557.27
2022-10-17T23:08:01.380Z,101554.94
2022-10-17T23:10:29.725Z,101558.93
2022-10-17T23:12:58.307Z,101558.41
2022-10-17T23:15:27.093Z,101556.40
2022-10-17T23:17:55.829Z,101559.95
2022-10-17T23:20:24.977Z,101557.90
2022-10-17T23:22:54.739Z,101558.43
2022-10-17T23:25:23.381Z,101555.59
2022-10-17T23:27:51.857Z,101549.65
2022-10-17T23:30:20.484Z,101550.36
2022-10-17T23:32:49.540Z,101554.33
2022-10-17T23:35:18.326Z,101552.78
2022-10-17T23:37:47.018Z,101556.38
2022-10-17T23:40:16.767Z,101555.23
2022-10-17T23:42:45.414Z,101549.46
2022-10-17T23:45:15.045Z,101550.91
2022-10-17T23:47:49.754Z,101553.95
2022-10-17T23:50:19.015Z,101551.11
2022-10-17T23:52:47.848Z,101551.77
2022-10-17T23:55:16.758Z,101548.50
2022-10-17T23:57:45.721Z,101546.78
